Time;durP1;ratioP1;P1;durP2;ratioP2;P2;SDS_P1;SDS_P2;PMS_P1;PMS_P2;Temp;Humidity;BMP_temperature;BMP_pressure;BME280_temperature;BME280_humidity;BME280_pressure;Samples;Min_cycle;Max_cycle;Signal;HPM_P1;HPM_P2
2024/02/15 00:02:15;;;;;;;11.53;7.60;;;13.00;38.00;;;;;;5015612;28;20284;-84
2024/02/15 00:04:40;;;;;;;13.40;7.43;;;13.00;36.60;;;;;;5021601;28;20957;-85
2024/02/15 00:07:06;;;;;;;10.40;7.10;;;13.00;35.80;;;;;;5027883;28;20442;-85
2024/02/15 00:09:32;;;;;;;17.60;8.63;;;13.00;32.50;;;;;;5022695;28;20260;-84
2024/02/15 00:11:59;;;;;;;13.33;6.53;;;13.10;29.70;;;;;;5026165;28;20615;-84
2024/02/15 00:14:25;;;;;;;13.10;5.90;;;13.10;26.80;;;;;;5025450;28;20211;-84
2024/02/15 00:16:51;;;;;;;17.43;6.40;;;13.10;24.00;;;;;;5023005;28;20455;-86
2024/02/15 00:19:17;;;;;;;8.43;5.67;;;13.10;21.80;;;;;;5024173;28;20918;-84
2024/02/15 00:21:45;;;;;;;11.93;6.17;;;13.10;19.50;;;;;;5016321;28;20212;-82
2024/02/15 00:24:11;;;;;;;10.03;5.80;;;13.20;17.80;;;;;;5019478;28;20233;-84
2024/02/15 00:26:37;;;;;;;9.27;5.43;;;13.20;15.60;;;;;;5018530;28;20437;-83
2024/02/15 00:29:03;;;;;;;17.10;6.93;;;13.20;15.20;;;;;;5015643;28;20721;-86
2024/02/15 00:31:28;;;;;;;11.77;6.70;;;13.20;14.10;;;;;;5018204;28;20524;-83
2024/02/15 00:33:55;;;;;;;13.13;6.53;;;13.20;14.40;;;;;;5017038;28;20654;-84
2024/02/15 00:36:20;;;;;;;12.70;6.00;;;13.20;14.70;;;;;;5021968;28;20179;-84
2024/02/15 00:38:46;;;;;;;14.73;5.90;;;13.20;14.10;;;;;;5018694;28;20472;-84
2024/02/15 00:41:12;;;;;;;19.77;6.23;;;13.20;14.20;;;;;;5016056;28;20582;-83
2024/02/15 00:43:37;;;;;;;10.17;6.20;;;13.20;13.30;;;;;;5017116;28;20186;-84
2024/02/15 00:46:03;;;;;;;10.43;6.27;;;13.20;15.20;;;;;;5017633;28;20451;-84
2024/02/15 00:48:29;;;;;;;11.73;6.60;;;13.10;15.30;;;;;;5018343;28;20684;-84
2024/02/15 00:50:56;;;;;;;10.30;5.73;;;13.20;16.00;;;;;;5016943;28;20457;-84
2024/02/15 00:53:21;;;;;;;11.83;6.13;;;13.20;14.80;;;;;;5015326;28;20797;-85
2024/02/15 00:55:47;;;;;;;18.03;5.77;;;13.20;13.80;;;;;;5017367;28;20452;-83
2024/02/15 00:58:12;;;;;;;19.10;6.40;;;13.20;13.00;;;;;;5024882;28;20214;-84
2024/02/15 01:00:38;;;;;;;12.80;6.20;;;13.20;12.20;;;;;;5017453;28;20191;-84
2024/02/15 01:03:04;;;;;;;11.93;5.10;;;13.20;11.20;;;;;;5016135;28;20218;-83
2024/02/15 01:05:30;;;;;;;10.90;5.30;;;13.20;9.70;;;;;;5014386;28;20229;-85
2024/02/15 01:07:56;;;;;;;10.97;5.43;;;13.20;9.00;;;;;;5021257;28;20506;-84
2024/02/15 01:10:23;;;;;;;14.70;5.30;;;13.20;7.90;;;;;;5024802;28;20447;-85
2024/02/15 01:12:49;;;;;;;9.00;4.90;;;13.20;6.80;;;;;;5013370;28;20475;-84
2024/02/15 01:15:18;;;;;;;9.07;5.20;;;13.30;4.30;;;;;;5025156;28;20434;-84
2024/02/15 01:17:44;;;;;;;10.90;5.50;;;13.20;2.00;;;;;;5021083;28;20847;-84
2024/02/15 01:20:10;;;;;;;16.20;5.40;;;13.20;1.00;;;;;;5039523;28;20937;-84
2024/02/15 01:22:36;;;;;;;12.07;5.60;;;13.20;1.00;;;;;;5032763;28;20545;-85
2024/02/15 01:25:01;;;;;;;10.17;5.90;;;13.30;1.00;;;;;;5025061;28;20802;-84
2024/02/15 01:27:30;;;;;;;9.87;4.80;;;13.30;1.00;;;;;;5023435;28;20215;-83
2024/02/15 01:29:56;;;;;;;7.43;4.80;;;13.30;1.00;;;;;;5026577;28;20205;-84
2024/02/15 01:32:22;;;;;;;22.67;6.00;;;13.30;1.00;;;;;;5024337;28;20449;-84
2024/02/15 01:34:48;;;;;;;9.17;4.90;;;13.30;1.00;;;;;;5020512;28;20443;-83
2024/02/15 01:37:13;;;;;;;9.20;5.80;;;13.30;1.00;;;;;;5020200;28;20193;-84
2024/02/15 01:39:40;;;;;;;13.93;5.17;;;13.30;1.00;;;;;;5024920;28;20464;-84
2024/02/15 01:42:05;;;;;;;11.70;5.90;;;13.30;1.00;;;;;;5019898;28;20213;-85
2024/02/15 01:44:31;;;;;;;11.40;5.23;;;13.30;1.00;;;;;;5024163;28;20438;-85
2024/02/15 01:46:58;;;;;;;9.77;5.57;;;13.30;1.00;;;;;;5018250;28;20188;-84
2024/02/15 01:49:27;;;;;;;14.37;4.83;;;13.30;1.00;;;;;;5026191;28;20456;-83
2024/02/15 01:51:56;;;;;;;10.00;5.80;;;13.30;1.00;;;;;;5021708;28;20488;-83
2024/02/15 01:54:22;;;;;;;10.97;5.07;;;13.40;1.00;;;;;;5006672;28;20438;-84
2024/02/15 01:56:48;;;;;;;9.67;5.07;;;13.40;1.00;;;;;;5018066;28;20520;-81
2024/02/15 01:59:19;;;;;;;9.17;5.73;;;13.40;1.00;;;;;;5018576;28;20465;-84
2024/02/15 02:01:45;;;;;;;9.60;5.00;;;13.40;1.00;;;;;;5020184;28;20468;-84
2024/02/15 02:04:10;;;;;;;10.10;5.00;;;13.40;1.00;;;;;;5023660;28;20436;-84
2024/02/15 02:06:37;;;;;;;9.50;5.27;;;13.40;1.00;;;;;;5018216;28;20238;-84
2024/02/15 02:09:03;;;;;;;9.00;5.07;;;13.40;1.00;;;;;;5014882;28;20562;-84
2024/02/15 02:11:29;;;;;;;7.50;4.50;;;13.40;1.00;;;;;;5014679;28;20486;-85
2024/02/15 02:13:55;;;;;;;12.00;4.67;;;13.40;1.00;;;;;;5019324;28;20218;-84
2024/02/15 02:16:35;;;;;;;11.40;4.23;;;13.40;1.00;;;;;;5016392;28;20507;-83
2024/02/15 02:19:01;;;;;;;10.63;4.50;;;13.40;1.00;;;;;;5019075;28;21159;-85
2024/02/15 02:21:28;;;;;;;8.07;4.47;;;13.30;1.00;;;;;;5020144;28;20472;-85
2024/02/15 02:23:57;;;;;;;15.30;4.17;;;13.30;1.00;;;;;;5015164;28;20433;-82
2024/02/15 02:26:24;;;;;;;12.03;4.63;;;13.30;1.00;;;;;;5024400;28;20429;-83
2024/02/15 02:28:53;;;;;;;10.47;4.23;;;13.20;1.00;;;;;;5026937;28;20455;-83
2024/02/15 02:31:18;;;;;;;15.57;4.33;;;13.20;1.00;;;;;;5025309;28;20447;-84
2024/02/15 02:33:51;;;;;;;10.47;4.37;;;13.10;1.00;;;;;;5014634;28;20438;-83
2024/02/15 02:36:18;;;;;;;6.27;3.33;;;13.10;1.00;;;;;;5022788;28;20174;-84
2024/02/15 02:38:45;;;;;;;8.43;3.90;;;13.10;1.00;;;;;;5024831;28;20462;-84
2024/02/15 02:41:11;;;;;;;9.10;3.87;;;13.00;1.00;;;;;;5026890;28;20462;-83
2024/02/15 02:43:37;;;;;;;13.00;4.33;;;13.00;1.00;;;;;;5008873;28;20492;-83
2024/02/15 02:46:05;;;;;;;5.13;3.63;;;13.00;1.00;;;;;;5006087;28;20430;-85
2024/02/15 02:48:31;;;;;;;6.17;3.27;;;13.00;1.00;;;;;;5030997;28;20452;-84
2024/02/15 02:50:57;;;;;;;8.83;3.50;;;13.00;1.00;;;;;;5021546;28;20800;-83
2024/02/15 02:53:23;;;;;;;5.87;3.27;;;13.00;1.00;;;;;;5020160;28;20276;-84
2024/02/15 02:55:49;;;;;;;8.83;2.93;;;13.00;1.00;;;;;;5027912;28;20450;-84
2024/02/15 02:58:15;;;;;;;7.90;2.80;;;13.00;1.00;;;;;;5027364;28;20494;-85
2024/02/15 03:00:41;;;;;;;3.83;2.53;;;13.00;1.00;;;;;;5024708;28;20502;-84
2024/02/15 03:03:06;;;;;;;8.17;3.00;;;13.00;1.00;;;;;;5026969;28;20215;-83
2024/02/15 03:05:32;;;;;;;5.80;3.17;;;13.10;1.00;;;;;;5015880;28;20176;-82
2024/02/15 03:07:57;;;;;;;7.83;3.20;;;13.10;1.00;;;;;;5016392;28;20211;-83
2024/02/15 03:10:24;;;;;;;15.13;3.17;;;13.20;1.00;;;;;;5023585;28;20226;-81
2024/02/15 03:12:50;;;;;;;5.30;2.63;;;13.20;1.00;;;;;;5020493;28;20270;-85
2024/02/15 03:15:16;;;;;;;8.13;3.20;;;13.30;1.00;;;;;;5015388;28;20453;-83
2024/02/15 03:17:43;;;;;;;8.80;2.73;;;13.30;1.00;;;;;;5021374;28;20242;-84
2024/02/15 03:20:12;;;;;;;4.40;2.40;;;13.30;1.00;;;;;;5015983;28;20809;-84
2024/02/15 03:22:38;;;;;;;6.20;2.97;;;13.40;1.00;;;;;;5021920;28;20501;-83
2024/02/15 03:25:08;;;;;;;8.70;2.50;;;13.40;1.00;;;;;;5013140;28;20441;-83
2024/02/15 03:27:35;;;;;;;6.70;2.70;;;13.40;1.00;;;;;;5019737;28;20523;-83
2024/02/15 03:30:02;;;;;;;5.60;2.60;;;13.40;1.00;;;;;;5011824;28;20436;-84
2024/02/15 03:32:27;;;;;;;6.10;2.33;;;13.40;1.00;;;;;;5021428;28;20496;-84
2024/02/15 03:34:54;;;;;;;8.00;2.43;;;13.50;1.00;;;;;;5015417;28;20441;-83
2024/02/15 03:37:20;;;;;;;8.53;3.00;;;13.50;1.00;;;;;;5015433;28;20183;-84
2024/02/15 03:39:46;;;;;;;5.23;2.20;;;13.50;1.00;;;;;;5000719;28;20540;-82
2024/02/15 03:42:12;;;;;;;8.20;2.40;;;13.50;1.00;;;;;;5015651;28;20538;-84
2024/02/15 03:44:38;;;;;;;9.60;3.00;;;13.50;1.00;;;;;;5016376;28;20465;-84
2024/02/15 03:47:05;;;;;;;11.50;2.30;;;13.50;1.00;;;;;;5015408;28;20660;-84
2024/02/15 03:49:31;;;;;;;5.30;2.57;;;13.50;1.00;;;;;;5024104;28;20451;-84
2024/02/15 03:51:59;;;;;;;12.07;2.50;;;13.50;1.00;;;;;;5020018;28;20937;-83
2024/02/15 03:54:25;;;;;;;5.93;2.27;;;13.50;1.00;;;;;;5019261;28;20521;-82
2024/02/15 03:56:54;;;;;;;8.73;2.40;;;13.50;1.00;;;;;;5019890;28;20457;-83
2024/02/15 03:59:26;;;;;;;5.30;2.30;;;13.50;1.00;;;;;;5015698;28;20518;-84
2024/02/15 04:01:56;;;;;;;6.97;2.17;;;13.50;1.00;;;;;;5015923;28;20953;-85
2024/02/15 04:04:22;;;;;;;3.83;1.73;;;13.50;1.00;;;;;;5021671;28;20440;-84
2024/02/15 04:06:51;;;;;;;6.63;2.10;;;13.50;1.00;;;;;;5015853;28;20437;-83
2024/02/15 04:09:18;;;;;;;5.70;1.90;;;13.50;1.00;;;;;;5020255;28;20285;-85
2024/02/15 04:11:46;;;;;;;7.80;2.43;;;13.50;1.00;;;;;;5029508;28;20460;-84
2024/02/15 04:14:12;;;;;;;10.37;3.27;;;13.50;1.00;;;;;;5027090;28;20440;-84
2024/02/15 04:16:38;;;;;;;8.40;4.03;;;13.50;1.00;;;;;;5022027;28;20431;-85
2024/02/15 04:19:04;;;;;;;6.20;2.10;;;13.40;1.00;;;;;;5028578;28;20718;-83
2024/02/15 04:21:30;;;;;;;4.83;2.47;;;13.40;1.00;;;;;;5021432;28;20311;-85
2024/02/15 04:23:56;;;;;;;4.77;2.03;;;13.40;1.00;;;;;;5022109;28;20452;-84
2024/02/15 04:26:26;;;;;;;5.20;2.27;;;13.40;1.00;;;;;;5028620;28;20943;-84
2024/02/15 04:28:52;;;;;;;6.30;2.27;;;13.30;1.00;;;;;;5027061;28;20569;-85
2024/02/15 04:31:18;;;;;;;6.80;2.67;;;13.30;1.00;;;;;;5022922;28;20437;-85
2024/02/15 04:33:44;;;;;;;9.23;3.77;;;13.30;1.00;;;;;;5022113;28;20446;-85
2024/02/15 04:36:09;;;;;;;4.20;2.40;;;13.30;1.00;;;;;;5007450;28;20185;-83
2024/02/15 04:38:35;;;;;;;8.13;3.37;;;13.30;1.00;;;;;;5021932;28;20208;-81
2024/02/15 04:41:05;;;;;;;6.33;2.17;;;13.30;1.00;;;;;;5026213;28;20178;-84
2024/02/15 04:43:33;;;;;;;9.43;2.97;;;13.20;1.00;;;;;;5021677;28;20232;-84
2024/02/15 04:45:59;;;;;;;5.07;2.43;;;13.20;1.00;;;;;;5005251;28;20442;-84
2024/02/15 04:48:25;;;;;;;3.30;1.90;;;13.20;1.00;;;;;;5019953;28;20452;-83
2024/02/15 04:50:52;;;;;;;23.30;10.83;;;13.20;1.00;;;;;;5020897;28;20853;-83
2024/02/15 04:53:17;;;;;;;6.07;2.20;;;13.20;1.00;;;;;;5002799;28;20187;-84
2024/02/15 04:55:43;;;;;;;6.80;3.30;;;13.20;1.00;;;;;;5019065;28;20441;-84
2024/02/15 04:58:10;;;;;;;13.87;3.57;;;13.20;1.00;;;;;;5021663;28;20206;-83
2024/02/15 05:00:36;;;;;;;5.20;2.73;;;13.20;1.00;;;;;;5016890;28;20459;-82
2024/02/15 05:03:02;;;;;;;7.53;3.07;;;13.20;1.00;;;;;;5020822;28;20567;-83
2024/02/15 05:05:29;;;;;;;14.70;4.50;;;13.10;1.00;;;;;;5014642;28;20188;-84
2024/02/15 05:07:54;;;;;;;8.20;4.23;;;13.10;1.00;;;;;;5017279;28;20948;-83
2024/02/15 05:10:20;;;;;;;15.70;6.50;;;13.00;1.00;;;;;;5014812;28;20444;-83
2024/02/15 05:12:49;;;;;;;16.50;4.60;;;13.00;1.00;;;;;;5015821;28;20194;-84
2024/02/15 05:15:17;;;;;;;8.67;4.27;;;13.00;1.00;;;;;;5014763;28;20677;-84
2024/02/15 05:17:43;;;;;;;7.10;3.37;;;13.00;1.00;;;;;;5014962;28;20440;-83
2024/02/15 05:20:13;;;;;;;4.90;2.70;;;13.00;1.00;;;;;;5008749;28;20890;-84
2024/02/15 05:22:39;;;;;;;9.13;2.57;;;13.00;1.00;;;;;;5021574;28;20262;-83
2024/02/15 05:25:07;;;;;;;8.23;2.80;;;13.00;1.00;;;;;;5012788;28;20473;-84
2024/02/15 05:27:33;;;;;;;10.73;2.37;;;13.00;1.00;;;;;;5023706;28;20444;-84
2024/02/15 05:29:59;;;;;;;10.03;3.40;;;13.00;1.00;;;;;;5016366;28;20540;-85
2024/02/15 05:32:26;;;;;;;5.90;2.80;;;13.00;1.00;;;;;;5012258;28;20529;-84
2024/02/15 05:34:51;;;;;;;9.97;3.53;;;12.90;1.00;;;;;;5008532;28;20223;-84
2024/02/15 05:37:17;;;;;;;15.03;3.30;;;13.00;1.00;;;;;;5018078;28;20441;-83
2024/02/15 05:39:43;;;;;;;10.60;5.90;;;13.00;1.00;;;;;;5020716;28;20208;-84
2024/02/15 05:42:10;;;;;;;7.27;4.07;;;13.00;1.00;;;;;;5020085;28;20283;-83
2024/02/15 05:44:36;;;;;;;27.33;9.90;;;13.00;1.00;;;;;;5025863;28;20207;-83
2024/02/15 05:47:01;;;;;;;21.33;7.90;;;13.00;1.00;;;;;;5023934;28;20438;-84
2024/02/15 05:49:27;;;;;;;43.80;17.27;;;13.00;1.00;;;;;;5021091;28;20841;-84
2024/02/15 05:51:53;;;;;;;8.20;4.93;;;13.00;1.00;;;;;;5022271;28;20217;-84
2024/02/15 05:54:19;;;;;;;5.30;2.17;;;13.00;1.00;;;;;;5003588;28;20979;-83
2024/02/15 05:56:45;;;;;;;4.97;2.30;;;13.00;1.00;;;;;;5019538;28;20486;-85
2024/02/15 05:59:10;;;;;;;3.97;1.90;;;13.00;1.00;;;;;;5017117;28;20586;-84
2024/02/15 06:01:40;;;;;;;13.67;5.03;;;13.00;1.00;;;;;;5019126;28;20210;-84
2024/02/15 06:04:08;;;;;;;7.47;3.07;;;13.00;1.00;;;;;;5016838;28;20183;-83
2024/02/15 06:06:34;;;;;;;6.17;2.97;;;13.00;1.00;;;;;;5018681;28;21154;-82
2024/02/15 06:09:01;;;;;;;10.33;5.10;;;13.00;1.00;;;;;;5020263;28;20892;-84
2024/02/15 06:11:27;;;;;;;11.27;4.27;;;13.00;1.00;;;;;;5018578;28;20493;-84
2024/02/15 06:13:53;;;;;;;9.80;3.13;;;13.00;1.00;;;;;;5016443;28;20447;-82
2024/02/15 06:16:18;;;;;;;10.93;5.50;;;13.00;1.00;;;;;;5021609;28;20189;-82
2024/02/15 06:18:44;;;;;;;14.27;6.80;;;13.10;1.00;;;;;;5017790;28;20467;-83
2024/02/15 06:21:09;;;;;;;16.07;7.53;;;13.00;1.00;;;;;;5025549;28;20205;-84
2024/02/15 06:23:35;;;;;;;31.83;13.00;;;13.10;1.00;;;;;;5020712;28;20184;-82
2024/02/15 06:26:02;;;;;;;7.27;4.30;;;13.10;1.00;;;;;;5014528;28;20180;-84
2024/02/15 06:39:38;;;;;;;19.43;7.97;;;13.10;1.00;;;;;;5013732;28;20451;-84
2024/02/15 06:42:04;;;;;;;14.37;7.00;;;13.10;1.00;;;;;;5009896;28;20463;-84
2024/02/15 06:44:30;;;;;;;9.50;3.67;;;13.10;1.00;;;;;;5017039;28;20527;-84
2024/02/15 06:46:56;;;;;;;12.57;4.80;;;13.10;1.00;;;;;;5025696;28;20524;-86
2024/02/15 06:49:24;;;;;;;9.77;2.60;;;13.10;1.00;;;;;;5018752;28;20202;-84
2024/02/15 06:51:50;;;;;;;18.10;7.67;;;13.10;1.00;;;;;;5019071;28;20438;-83
2024/02/15 06:54:18;;;;;;;10.37;5.10;;;13.10;1.00;;;;;;5018320;28;20457;-83
2024/02/15 06:56:46;;;;;;;7.50;4.40;;;13.10;1.00;;;;;;5021099;28;20443;-84
2024/02/15 06:59:14;;;;;;;12.23;3.70;;;13.10;1.00;;;;;;5015734;28;20621;-83
2024/02/15 07:01:41;;;;;;;13.30;4.63;;;13.00;1.00;;;;;;5032790;28;20491;-84
2024/02/15 07:04:08;;;;;;;6.50;2.80;;;13.00;1.00;;;;;;5008468;28;20946;-84
2024/02/15 07:06:35;;;;;;;14.70;6.20;;;13.10;1.00;;;;;;5017463;28;20452;-85
2024/02/15 07:09:00;;;;;;;20.83;8.80;;;13.10;1.00;;;;;;5021903;28;20457;-84
2024/02/15 07:11:26;;;;;;;47.67;21.23;;;13.10;1.00;;;;;;5024409;28;20878;-86
2024/02/15 07:13:54;;;;;;;41.50;20.73;;;13.10;1.00;;;;;;5022098;28;20185;-82
2024/02/15 07:16:20;;;;;;;15.70;9.13;;;13.10;1.00;;;;;;5029757;28;20397;-83
2024/02/15 07:18:46;;;;;;;22.77;8.40;;;13.10;1.00;;;;;;5024681;28;20501;-84
2024/02/15 07:21:13;;;;;;;9.57;4.77;;;13.00;1.00;;;;;;5026311;28;20188;-82
2024/02/15 07:23:41;;;;;;;11.20;7.00;;;13.00;1.00;;;;;;5013337;28;20445;-84
2024/02/15 07:26:07;;;;;;;20.03;6.53;;;12.90;1.60;;;;;;5029149;28;20617;-84
2024/02/15 07:28:33;;;;;;;10.80;4.33;;;12.90;5.00;;;;;;5030522;28;20458;-84
2024/02/15 07:31:02;;;;;;;7.77;4.90;;;12.80;2.60;;;;;;5027869;28;20468;-85
2024/02/15 07:33:28;;;;;;;11.80;4.40;;;12.80;3.00;;;;;;5033307;28;20269;-83
2024/02/15 07:35:56;;;;;;;13.90;4.37;;;12.70;2.40;;;;;;5019352;28;20441;-85
2024/02/15 07:38:22;;;;;;;11.70;5.03;;;12.70;5.10;;;;;;5030062;28;20456;-83
2024/02/15 07:40:48;;;;;;;14.33;5.20;;;12.70;9.00;;;;;;5032429;28;20454;-84
2024/02/15 07:43:14;;;;;;;13.93;4.60;;;12.80;7.20;;;;;;5040047;28;20467;-82
2024/02/15 07:45:40;;;;;;;5.43;4.20;;;12.80;7.40;;;;;;5011941;28;21709;-83
2024/02/15 07:48:06;;;;;;;7.53;4.70;;;12.80;8.40;;;;;;5025848;28;20206;-82
2024/02/15 07:50:32;;;;;;;8.00;4.57;;;12.90;7.50;;;;;;5025401;28;20453;-82
2024/02/15 07:52:57;;;;;;;13.80;5.33;;;12.90;9.40;;;;;;5033135;28;20437;-82
2024/02/15 07:55:24;;;;;;;11.67;4.67;;;12.90;1.00;;;;;;5014706;28;20193;-82
2024/02/15 07:57:53;;;;;;;9.60;4.70;;;12.80;1.00;;;;;;5019687;28;20217;-82
2024/02/15 08:00:19;;;;;;;8.10;5.03;;;12.80;1.00;;;;;;5025978;28;20452;-82
2024/02/15 08:02:45;;;;;;;10.30;4.27;;;12.80;1.00;;;;;;5027842;28;20841;-84
2024/02/15 08:05:12;;;;;;;12.37;4.47;;;12.90;1.00;;;;;;5022029;28;20439;-82
2024/02/15 08:07:45;;;;;;;10.40;3.70;;;12.90;1.00;;;;;;5020449;28;20526;-82
2024/02/15 08:10:14;;;;;;;8.57;4.13;;;13.10;1.00;;;;;;5027011;28;20926;-83
2024/02/15 08:12:41;;;;;;;7.13;3.73;;;13.10;1.00;;;;;;5023795;28;20498;-83
2024/02/15 08:15:11;;;;;;;8.50;4.80;;;13.10;1.00;;;;;;5025273;28;20985;-83
2024/02/15 08:17:41;;;;;;;8.73;4.20;;;13.20;1.00;;;;;;5028523;28;20442;-84
2024/02/15 08:20:21;;;;;;;8.17;4.17;;;13.20;1.00;;;;;;5024815;28;20575;-83
2024/02/15 08:22:54;;;;;;;15.17;5.40;;;13.20;1.00;;;;;;5017546;28;20507;-83
2024/02/15 08:25:20;;;;;;;8.93;4.37;;;13.30;1.00;;;;;;5017978;28;20450;-84
2024/02/15 08:27:49;;;;;;;10.17;3.90;;;13.40;1.00;;;;;;5020419;28;20433;-83
2024/02/15 08:30:15;;;;;;;10.83;4.00;;;13.50;1.00;;;;;;5018139;28;20186;-83
2024/02/15 08:32:42;;;;;;;8.57;3.80;;;13.50;1.00;;;;;;5005556;28;20831;-83
2024/02/15 08:35:09;;;;;;;12.93;3.67;;;13.60;1.00;;;;;;5032176;28;20439;-85
2024/02/15 08:37:35;;;;;;;7.57;4.07;;;13.70;1.00;;;;;;5024544;28;20549;-84
2024/02/15 08:40:04;;;;;;;10.20;4.10;;;13.70;1.00;;;;;;5028742;28;20450;-84
2024/02/15 08:42:29;;;;;;;7.27;2.90;;;13.80;1.00;;;;;;5018015;28;20482;-85
2024/02/15 08:44:55;;;;;;;6.20;2.80;;;13.90;1.00;;;;;;5023241;28;20433;-84
2024/02/15 08:47:21;;;;;;;5.30;2.93;;;14.10;1.00;;;;;;5029688;28;20276;-86
2024/02/15 08:49:46;;;;;;;9.17;3.23;;;14.20;1.00;;;;;;5022188;28;20221;-85
2024/02/15 08:52:12;;;;;;;10.67;3.73;;;14.30;1.00;;;;;;5023263;28;20746;-85
2024/02/15 08:54:41;;;;;;;9.83;3.17;;;14.30;1.00;;;;;;5022591;28;20607;-84
2024/02/15 08:57:07;;;;;;;8.13;3.17;;;14.30;1.00;;;;;;5028387;28;20710;-85
2024/02/15 08:59:33;;;;;;;13.93;3.50;;;14.40;1.00;;;;;;5035156;28;20461;-84
2024/02/15 09:02:00;;;;;;;7.80;3.07;;;14.50;1.00;;;;;;5035561;28;20694;-85
2024/02/15 09:04:26;;;;;;;15.27;4.00;;;14.50;1.00;;;;;;5026541;28;20445;-85
2024/02/15 09:06:52;;;;;;;7.33;3.00;;;14.70;99.90;;;;;;5029327;28;20437;-84
2024/02/15 09:09:17;;;;;;;11.17;4.27;;;14.80;99.90;;;;;;5026153;28;20564;-84
2024/02/15 09:11:43;;;;;;;11.67;4.83;;;15.00;99.90;;;;;;5033797;28;20799;-85
2024/02/15 09:14:11;;;;;;;18.00;4.27;;;15.20;99.90;;;;;;5035755;28;20213;-86
2024/02/15 09:16:37;;;;;;;6.30;2.97;;;15.30;99.90;;;;;;5038369;28;20210;-85
2024/02/15 09:19:02;;;;;;;9.83;2.70;;;15.40;99.90;;;;;;5042348;28;20483;-84
2024/02/15 09:21:29;;;;;;;13.83;3.90;;;15.40;95.80;;;;;;5025605;28;20215;-83
2024/02/15 09:23:56;;;;;;;6.17;2.43;;;15.40;49.40;;;;;;5004767;28;20196;-83
2024/02/15 09:26:22;;;;;;;4.27;2.43;;;15.30;1.00;;;;;;5034678;28;20448;-82
2024/02/15 09:28:47;;;;;;;3.83;2.90;;;15.30;95.40;;;;;;5022409;28;20976;-82
2024/02/15 09:31:16;;;;;;;3.17;2.37;;;15.40;99.90;;;;;;5016248;28;20438;-84
2024/02/15 09:33:43;;;;;;;3.53;2.10;;;15.40;99.90;;;;;;5007456;28;20195;-83
2024/02/15 09:36:09;;;;;;;10.50;3.30;;;15.50;99.90;;;;;;5020146;28;20484;-82
2024/02/15 09:38:35;;;;;;;3.97;2.83;;;15.50;99.90;;;;;;4999312;28;20212;-82
2024/02/15 09:41:02;;;;;;;5.50;2.60;;;15.50;98.80;;;;;;5019217;28;20174;-82
2024/02/15 09:43:29;;;;;;;5.20;2.50;;;15.50;1.00;;;;;;5018401;28;20465;-82
2024/02/15 09:45:55;;;;;;;4.70;2.10;;;15.50;6.70;;;;;;5015834;28;20437;-83
2024/02/15 09:48:25;;;;;;;3.33;2.10;;;15.60;1.00;;;;;;5014185;28;20473;-82
2024/02/15 09:50:53;;;;;;;5.80;2.80;;;15.70;4.70;;;;;;5018473;28;20194;-83
2024/02/15 09:53:25;;;;;;;4.23;2.53;;;15.80;1.00;;;;;;5017501;28;20491;-85
2024/02/15 09:55:54;;;;;;;5.20;2.40;;;16.00;1.00;;;;;;5022025;28;20435;-84
2024/02/15 09:58:19;;;;;;;3.00;1.63;;;16.00;49.40;;;;;;5019656;28;20484;-83
2024/02/15 10:00:46;;;;;;;5.57;2.20;;;16.10;99.90;;;;;;5015158;28;20853;-83
2024/02/15 10:03:15;;;;;;;4.63;1.97;;;16.20;1.00;;;;;;5016202;28;20584;-82
2024/02/15 10:05:41;;;;;;;3.63;2.03;;;16.40;1.00;;;;;;5023589;28;20960;-84
2024/02/15 10:08:07;;;;;;;5.40;2.07;;;16.50;99.90;;;;;;5015642;28;20583;-85
2024/02/15 10:10:35;;;;;;;5.93;1.90;;;16.70;1.00;;;;;;5016872;28;20819;-83
2024/02/15 10:13:01;;;;;;;3.40;1.90;;;16.70;1.00;;;;;;5023747;28;20201;-83
2024/02/15 10:15:36;;;;;;;5.83;2.87;;;16.80;99.90;;;;;;5021835;28;20433;-85
2024/02/15 10:18:08;;;;;;;1.93;1.53;;;16.90;1.00;;;;;;5021852;28;20452;-83
2024/02/15 10:20:35;;;;;;;7.70;3.90;;;17.10;1.00;;;;;;5022985;28;20433;-85
2024/02/15 10:23:00;;;;;;;7.57;3.37;;;17.50;1.00;;;;;;5016249;28;20464;-83
2024/02/15 10:25:29;;;;;;;6.43;3.53;;;17.80;99.90;;;;;;5009142;28;20440;-85
2024/02/15 10:28:07;;;;;;;7.70;2.90;;;17.90;1.00;;;;;;5022001;28;20225;-84
2024/02/15 10:30:38;;;;;;;10.03;4.10;;;18.30;1.00;;;;;;5021191;28;20426;-83
2024/02/15 10:33:04;;;;;;;6.60;3.20;;;18.50;99.90;;;;;;5010941;28;20434;-84
2024/02/15 10:35:30;;;;;;;5.77;2.60;;;18.80;99.90;;;;;;5006139;28;20517;-85
2024/02/15 10:38:10;;;;;;;12.70;3.90;;;19.10;59.30;;;;;;5030973;28;22856;-84
2024/02/15 10:40:36;;;;;;;4.20;2.10;;;19.40;1.00;;;;;;5022670;28;20436;-84
2024/02/15 10:43:05;;;;;;;2.43;1.53;;;19.60;1.00;;;;;;5022660;28;20504;-83
2024/02/15 10:45:33;;;;;;;3.17;1.70;;;19.80;1.00;;;;;;5028877;28;20457;-84
2024/02/15 10:47:59;;;;;;;9.30;2.30;;;20.00;1.00;;;;;;5029867;28;20469;-84
2024/02/15 10:50:25;;;;;;;6.93;1.40;;;20.20;1.00;;;;;;5015668;28;20440;-84
2024/02/15 10:52:58;;;;;;;2.90;1.53;;;20.40;1.00;;;;;;5028998;28;20526;-85
2024/02/15 10:55:48;;;;;;;3.00;1.73;;;20.40;1.00;;;;;;5019903;28;20432;-85
2024/02/15 10:58:19;;;;;;;5.20;2.43;;;20.50;1.00;;;;;;5025374;28;20459;-84
2024/02/15 11:00:47;;;;;;;3.33;1.47;;;20.70;1.00;;;;;;5023183;28;20542;-85
2024/02/15 11:03:25;;;;;;;7.10;1.30;;;20.80;1.00;;;;;;5032475;28;20464;-85
2024/02/15 11:05:52;;;;;;;8.60;2.93;;;21.00;1.00;;;;;;5020615;28;20511;-84
2024/02/15 11:08:18;;;;;;;4.03;1.80;;;21.10;1.00;;;;;;5024918;28;20476;-84
2024/02/15 11:10:44;;;;;;;2.67;1.10;;;21.20;1.00;;;;;;5019045;28;20439;-83
2024/02/15 11:13:11;;;;;;;2.70;1.30;;;21.60;1.00;;;;;;5016953;28;20775;-87
2024/02/15 11:15:41;;;;;;;1.97;1.30;;;21.90;1.00;;;;;;5016594;28;20438;-84
2024/02/15 11:18:07;;;;;;;3.63;1.30;;;22.00;1.00;;;;;;5019544;28;20459;-85
2024/02/15 11:20:33;;;;;;;4.30;1.37;;;22.00;1.00;;;;;;5021012;28;20467;-85
2024/02/15 11:23:01;;;;;;;6.63;1.53;;;22.00;99.90;;;;;;5028545;28;20708;-85
2024/02/15 11:25:41;;;;;;;3.83;1.20;;;22.20;99.90;;;;;;5016084;28;20442;-83
2024/02/15 11:28:21;;;;;;;4.13;1.60;;;22.40;99.90;;;;;;5016402;28;20460;-84
2024/02/15 11:30:50;;;;;;;2.20;1.10;;;22.50;99.90;;;;;;5015462;28;20459;-84
2024/02/15 11:33:32;;;;;;;3.53;1.97;;;22.50;99.90;;;;;;5016686;28;20992;-82
2024/02/15 11:36:11;;;;;;;5.17;1.70;;;22.50;99.90;;;;;;5018432;28;21056;-83
2024/02/15 11:38:41;;;;;;;3.87;1.47;;;22.40;99.90;;;;;;5024604;28;20463;-82
2024/02/15 11:41:08;;;;;;;2.97;1.60;;;22.30;99.90;;;;;;5007390;28;20952;-81
2024/02/15 11:43:45;;;;;;;3.00;1.17;;;22.20;99.90;;;;;;5002541;28;20528;-85
2024/02/15 11:46:14;;;;;;;2.53;1.07;;;22.30;99.90;;;;;;5017693;28;20493;-85
2024/02/15 11:48:40;;;;;;;3.60;1.40;;;22.40;99.90;;;;;;5021933;28;20839;-86
2024/02/15 11:51:11;;;;;;;5.20;1.67;;;22.40;99.90;;;;;;5028325;28;20439;-85
2024/02/15 11:53:37;;;;;;;4.53;1.50;;;22.50;99.90;;;;;;5026301;28;20450;-85
2024/02/15 11:56:09;;;;;;;3.47;1.23;;;22.70;99.90;;;;;;5030208;28;20518;-84
2024/02/15 11:58:52;;;;;;;3.40;1.10;;;22.90;99.90;;;;;;5028213;28;20460;-85
2024/02/15 12:20:31;;;;;;;1.90;1.13;;;23.60;99.90;;;;;;5021294;28;20483;-84
2024/02/15 12:23:00;;;;;;;2.73;1.00;;;23.50;99.90;;;;;;5013154;28;20498;-84
2024/02/15 12:25:26;;;;;;;5.17;1.83;;;23.20;99.90;;;;;;5029069;28;20524;-84
2024/02/15 12:27:54;;;;;;;1.80;1.10;;;23.10;99.90;;;;;;5033567;28;22908;-84
2024/02/15 12:30:21;;;;;;;3.40;1.00;;;23.00;99.90;;;;;;5020783;28;20426;-84
2024/02/15 12:32:47;;;;;;;1.50;1.00;;;22.70;99.90;;;;;;5025611;28;20442;-82
2024/02/15 12:35:20;;;;;;;2.13;1.00;;;22.50;99.90;;;;;;5016543;28;20441;-84
2024/02/15 12:37:46;;;;;;;3.60;1.00;;;22.30;99.90;;;;;;5020459;28;21054;-84
2024/02/15 12:40:18;;;;;;;3.40;1.23;;;22.10;99.90;;;;;;5019616;28;20436;-84
2024/02/15 12:42:44;;;;;;;3.40;1.60;;;22.00;99.90;;;;;;5014465;28;20907;-83
2024/02/15 12:45:29;;;;;;;5.60;1.63;;;21.80;99.90;;;;;;5017631;28;20439;-82
2024/02/15 12:47:56;;;;;;;3.40;1.37;;;21.70;99.90;;;;;;5013856;28;20849;-83
2024/02/15 12:50:31;;;;;;;3.20;1.70;;;21.50;99.90;;;;;;5017150;28;20440;-83
2024/02/15 12:53:01;;;;;;;2.90;1.10;;;21.30;99.90;;;;;;5022330;28;20491;-84
2024/02/15 12:55:33;;;;;;;4.83;1.63;;;21.20;99.90;;;;;;5018933;28;20451;-84
2024/02/15 12:58:03;;;;;;;4.60;2.30;;;21.10;99.90;;;;;;5004034;28;20889;-83
2024/02/15 13:00:31;;;;;;;2.30;1.27;;;21.00;99.90;;;;;;5017494;28;20456;-83
2024/02/15 13:02:58;;;;;;;3.30;2.10;;;21.10;99.90;;;;;;5002881;28;20472;-83
2024/02/15 13:05:26;;;;;;;3.00;1.50;;;21.10;99.90;;;;;;5018471;28;20475;-84
2024/02/15 13:08:04;;;;;;;3.90;2.40;;;21.00;99.90;;;;;;5014272;28;20453;-83
2024/02/15 13:10:31;;;;;;;11.90;4.60;;;21.00;99.90;;;;;;5014286;28;20916;-83
2024/02/15 13:12:57;;;;;;;6.17;4.10;;;21.10;99.90;;;;;;5010827;28;20441;-84
2024/02/15 13:15:27;;;;;;;11.53;7.97;;;21.10;99.90;;;;;;5013141;28;20467;-83
2024/02/15 13:17:55;;;;;;;11.13;6.75;;;21.10;99.90;;;;;;5016291;28;20441;-83
2024/02/15 13:20:31;;;;;;;12.17;9.37;;;21.10;99.90;;;;;;5024848;28;20269;-83
2024/02/15 13:23:00;;;;;;;7.00;3.40;;;21.20;99.90;;;;;;5032645;28;20842;-85